createdAt,value
2019-02-16T00:01:07.118Z,13.20
2019-02-16T00:03:36.011Z,12.90
2019-02-16T00:06:08.197Z,13.10
2019-02-16T00:08:41.101Z,12.60
2019-02-16T00:11:10.843Z,12.30
2019-02-16T00:13:40.947Z,12.20
2019-02-16T00:16:10.761Z,12.30
2019-02-16T00:18:41.554Z,12.50
2019-02-16T00:21:12.976Z,12.60
2019-02-16T00:23:45.010Z,12.60
2019-02-16T00:26:15.592Z,12.10
2019-02-16T00:28:46.138Z,11.60
2019-02-16T00:31:15.018Z,11.00
2019-02-16T00:33:44.262Z,11.30
2019-02-16T00:36:14.506Z,11.40
2019-02-16T00:38:45.410Z,11.50
2019-02-16T00:41:14.308Z,11.70
2019-02-16T00:43:43.170Z,11.50
2019-02-16T00:46:12.881Z,11.70
2019-02-16T00:48:43.282Z,12.00
2019-02-16T00:51:13.917Z,11.10
2019-02-16T00:53:42.621Z,10.30
2019-02-16T00:56:12.349Z,10.40
2019-02-16T00:58:42.503Z,10.70
2019-02-16T01:01:11.428Z,10.30
2019-02-16T01:03:40.603Z,10.00
2019-02-16T01:06:09.439Z,9.80
2019-02-16T01:08:38.292Z,10.10
2019-02-16T01:11:07.745Z,10.00
2019-02-16T01:13:36.654Z,9.60
2019-02-16T01:16:05.466Z,9.70
2019-02-16T01:18:34.393Z,9.30
2019-02-16T01:21:04.129Z,9.40
2019-02-16T01:23:33.046Z,9.40
2019-02-16T01:26:01.989Z,9.20
2019-02-16T01:28:30.760Z,9.00
2019-02-16T01:30:59.631Z,9.50
2019-02-16T01:33:28.486Z,9.90
2019-02-16T01:35:57.407Z,10.30
2019-02-16T01:38:26.259Z,10.50
2019-02-16T01:40:55.109Z,10.60
2019-02-16T01:43:24.233Z,11.20
2019-02-16T01:45:55.736Z,11.10
2019-02-16T01:48:24.751Z,11.20
2019-02-16T01:50:53.617Z,11.40
2019-02-16T01:53:22.983Z,11.60
2019-02-16T01:55:51.917Z,11.70
2019-02-16T01:58:20.688Z,11.60
2019-02-16T02:00:49.847Z,11.60
2019-02-16T02:03:18.755Z,11.60
2019-02-16T02:05:47.547Z,11.10
2019-02-16T02:08:16.657Z,10.90
2019-02-16T02:10:45.423Z,10.50
2019-02-16T02:13:15.832Z,10.00
2019-02-16T02:16:04.920Z,10.40
2019-02-16T02:18:33.751Z,10.40
2019-02-16T02:21:02.698Z,10.70
2019-02-16T02:23:32.245Z,10.60
2019-02-16T02:26:01.924Z,10.70
2019-02-16T02:28:30.730Z,11.20
2019-02-16T02:30:59.938Z,11.50
2019-02-16T02:33:29.616Z,11.80
2019-02-16T02:35:58.442Z,12.10
2019-02-16T02:38:27.677Z,12.10
2019-02-16T02:40:58.017Z,12.30
2019-02-16T02:43:27.042Z,12.40
2019-02-16T02:45:57.388Z,12.60
2019-02-16T02:48:26.615Z,12.70
2019-02-16T02:50:55.533Z,12.80
2019-02-16T02:53:31.159Z,12.70
2019-02-16T02:55:56.177Z,12.70
2019-02-16T02:58:25.275Z,12.70
2019-02-16T03:00:54.449Z,12.70
2019-02-16T03:03:23.356Z,12.70
2019-02-16T03:05:52.620Z,12.60
2019-02-16T03:08:21.540Z,12.50
2019-02-16T03:10:50.482Z,12.50
2019-02-16T03:13:19.934Z,12.50
2019-02-16T03:15:49.295Z,12.60
2019-02-16T03:18:18.369Z,12.60
2019-02-16T03:20:47.569Z,12.60
2019-02-16T03:23:18.876Z,12.60
2019-02-16T03:26:09.521Z,12.60
2019-02-16T03:28:53.226Z,12.70
2019-02-16T03:31:37.639Z,12.50
2019-02-16T03:34:21.231Z,12.60
2019-02-16T03:37:17.180Z,12.30
2019-02-16T03:39:46.685Z,12.20
2019-02-16T03:42:15.572Z,12.10
2019-02-16T03:44:44.387Z,12.00
2019-02-16T03:47:13.276Z,11.90
2019-02-16T03:49:42.081Z,12.00
2019-02-16T03:52:14.096Z,12.00
2019-02-16T03:54:42.933Z,12.00
2019-02-16T03:57:11.918Z,11.90
2019-02-16T03:59:40.964Z,12.10
2019-02-16T04:02:11.204Z,12.00
2019-02-16T04:04:40.019Z,12.10
2019-02-16T04:07:08.893Z,11.80
2019-02-16T04:09:37.774Z,11.70
2019-02-16T04:12:07.258Z,12.00
2019-02-16T04:14:36.255Z,11.50
2019-02-16T04:17:11.717Z,11.60
2019-02-16T04:19:41.450Z,11.60
2019-02-16T04:22:11.410Z,11.80
2019-02-16T04:24:40.367Z,11.50
2019-02-16T04:27:09.168Z,11.50
2019-02-16T04:29:37.961Z,11.60
2019-02-16T04:32:07.575Z,11.80
2019-02-16T04:34:36.983Z,11.80
2019-02-16T04:37:06.111Z,11.90
2019-02-16T04:39:38.008Z,12.20
2019-02-16T04:42:06.809Z,12.10
2019-02-16T04:44:36.083Z,12.00
2019-02-16T04:47:08.268Z,11.90
2019-02-16T04:49:39.553Z,12.10
2019-02-16T04:52:08.370Z,11.90
2019-02-16T04:54:37.338Z,11.70
2019-02-16T04:57:06.223Z,11.30
2019-02-16T04:59:34.979Z,11.00
2019-02-16T05:02:03.859Z,10.30
2019-02-16T05:04:32.795Z,10.50
2019-02-16T05:07:02.417Z,10.50
2019-02-16T05:09:31.738Z,10.50
2019-02-16T05:12:00.610Z,10.50
2019-02-16T05:14:29.457Z,10.90
2019-02-16T05:16:58.370Z,10.90
2019-02-16T05:19:27.607Z,11.00
2019-02-16T05:21:56.621Z,10.90
2019-02-16T05:24:34.658Z,10.80
2019-02-16T05:30:35.113Z,10.80
2019-02-16T05:33:05.196Z,10.70
2019-02-16T05:35:35.760Z,11.00
2019-02-16T05:38:05.120Z,11.20
2019-02-16T05:40:33.916Z,10.90
2019-02-16T05:43:03.553Z,11.00
2019-02-16T05:45:33.418Z,11.10
2019-02-16T05:48:02.898Z,11.20
2019-02-16T05:50:33.299Z,11.10
2019-02-16T05:53:03.238Z,11.00
2019-02-16T05:55:32.421Z,10.90
2019-02-16T05:58:01.335Z,10.90
2019-02-16T06:00:31.742Z,11.00
2019-02-16T06:03:00.663Z,10.90
2019-02-16T06:05:29.493Z,11.30
2019-02-16T06:07:59.836Z,11.20
2019-02-16T06:10:30.501Z,11.20
2019-02-16T06:13:00.587Z,11.10
2019-02-16T06:15:30.016Z,11.40
2019-02-16T06:17:58.844Z,11.50
2019-02-16T06:20:27.852Z,11.60
2019-02-16T06:23:03.966Z,11.40
2019-02-16T06:25:28.449Z,11.60
2019-02-16T06:27:57.308Z,11.50
2019-02-16T06:30:26.848Z,11.70
2019-02-16T06:32:55.730Z,11.70
2019-02-16T06:35:29.402Z,12.10
2019-02-16T06:37:58.913Z,12.20
2019-02-16T06:40:27.894Z,12.30
2019-02-16T06:42:57.884Z,11.80
2019-02-16T06:45:26.872Z,11.80
2019-02-16T06:47:56.687Z,11.90
2019-02-16T06:50:25.568Z,11.80
2019-02-16T06:52:54.353Z,12.10
2019-02-16T06:55:24.823Z,11.80
2019-02-16T06:57:55.522Z,12.10
2019-02-16T07:00:27.786Z,12.00
2019-02-16T07:02:56.688Z,12.30
2019-02-16T07:05:25.538Z,12.20
2019-02-16T07:07:56.576Z,12.10
2019-02-16T07:10:25.408Z,12.00
2019-02-16T07:12:54.263Z,12.30
2019-02-16T07:15:23.196Z,12.40
2019-02-16T07:17:53.645Z,12.40
2019-02-16T07:20:24.017Z,12.50
2019-02-16T07:22:54.124Z,12.60
2019-02-16T07:25:23.276Z,13.00
2019-02-16T07:27:52.197Z,13.10
2019-02-16T07:30:21.159Z,13.00
2019-02-16T07:32:50.091Z,12.90
2019-02-16T07:35:19.825Z,13.20
2019-02-16T07:37:49.729Z,12.90
2019-02-16T07:40:19.079Z,12.50
2019-02-16T07:42:50.360Z,12.70
2019-02-16T07:45:23.399Z,12.80
2019-02-16T07:47:59.759Z,12.60
2019-02-16T07:50:32.605Z,12.60
2019-02-16T07:53:03.913Z,12.60
2019-02-16T07:58:42.901Z,12.80
2019-02-16T08:01:22.984Z,12.70
2019-02-16T08:04:13.933Z,12.60
2019-02-16T08:06:49.624Z,13.10
2019-02-16T08:09:22.847Z,13.10
2019-02-16T08:11:54.796Z,13.30
2019-02-16T08:14:28.844Z,13.70
2019-02-16T08:17:01.489Z,14.00
2019-02-16T08:19:39.099Z,13.60
2019-02-16T08:22:10.217Z,13.60
2019-02-16T08:27:39.244Z,13.20
2019-02-16T08:30:26.715Z,12.80
2019-02-16T08:36:04.939Z,13.00
2019-02-16T08:38:38.224Z,12.70
2019-02-16T08:43:44.136Z,12.60
2019-02-16T08:46:23.634Z,12.90
2019-02-16T08:49:07.155Z,12.60
2019-02-16T08:52:31.668Z,12.50
2019-02-16T08:55:30.764Z,12.50
2019-02-16T09:01:45.737Z,12.70
2019-02-16T09:04:23.583Z,12.60
2019-02-16T09:06:59.405Z,12.80
2019-02-16T09:09:51.241Z,12.70
2019-02-16T09:12:52.266Z,12.70
2019-02-16T09:15:26.303Z,12.60
2019-02-16T09:21:14.645Z,12.70
2019-02-16T09:23:44.573Z,13.00
2019-02-16T09:26:19.269Z,13.00
2019-02-16T09:29:01.409Z,13.20
2019-02-16T09:34:55.406Z,13.00
2019-02-16T09:37:26.404Z,12.80
2019-02-16T09:40:08.500Z,12.90
2019-02-16T09:43:06.563Z,13.30
2019-02-16T09:45:37.129Z,13.70
2019-02-16T09:51:10.407Z,13.80
2019-02-16T09:53:42.327Z,13.80
2019-02-16T09:56:22.442Z,13.90
2019-02-16T09:59:20.015Z,13.60
2019-02-16T10:01:56.380Z,13.40
2019-02-16T10:04:26.854Z,13.50
2019-02-16T10:07:02.543Z,13.50
2019-02-16T10:09:33.260Z,13.30
2019-02-16T10:12:04.697Z,13.30
2019-02-16T10:14:48.044Z,13.20
2019-02-16T10:17:21.465Z,13.20
2019-02-16T10:20:12.159Z,12.90
2019-02-16T10:34:11.070Z,13.40
2019-02-16T10:49:02.108Z,14.20
2019-02-16T10:55:24.391Z,14.40
2019-02-16T10:58:40.182Z,14.00
2019-02-16T11:01:16.483Z,13.60
2019-02-16T11:03:59.070Z,14.20
2019-02-16T11:06:34.215Z,14.20
2019-02-16T11:09:15.490Z,14.10
2019-02-16T11:11:46.184Z,13.90
2019-02-16T11:14:32.954Z,14.20
2019-02-16T11:17:09.776Z,14.30
2019-02-16T11:19:49.966Z,14.10
2019-02-16T11:22:37.617Z,14.00
2019-02-16T11:25:24.404Z,14.20
2019-02-16T11:28:00.817Z,13.80
2019-02-16T11:30:32.761Z,13.70
2019-02-16T11:33:24.976Z,13.90
2019-02-16T11:35:58.279Z,14.50
2019-02-16T11:38:31.964Z,14.50
2019-02-16T11:41:18.966Z,14.50
2019-02-16T11:43:55.652Z,14.70
2019-02-16T11:46:34.017Z,14.50
2019-02-16T11:49:20.529Z,13.80
2019-02-16T11:52:06.197Z,13.70
2019-02-16T11:54:45.742Z,13.80
2019-02-16T11:57:16.833Z,13.90
2019-02-16T11:59:50.400Z,13.60
2019-02-16T12:02:20.803Z,13.50
2019-02-16T12:04:58.215Z,13.40
2019-02-16T12:07:28.749Z,13.50
2019-02-16T12:10:05.143Z,13.60
2019-02-16T12:12:52.012Z,13.60
2019-02-16T12:15:25.082Z,13.50
2019-02-16T12:17:55.878Z,13.80
2019-02-16T12:20:33.394Z,13.90
2019-02-16T12:22:58.397Z,13.90
2019-02-16T12:25:34.536Z,13.70
2019-02-16T12:28:08.747Z,13.70
2019-02-16T12:30:39.682Z,13.90
2019-02-16T12:33:28.244Z,13.60
2019-02-16T12:36:01.232Z,13.60
2019-02-16T12:38:31.705Z,13.70
2019-02-16T12:41:07.970Z,13.80
2019-02-16T12:43:38.376Z,13.80
2019-02-16T12:46:18.227Z,14.00
2019-02-16T12:49:07.385Z,13.60
2019-02-16T12:51:37.802Z,13.40
2019-02-16T12:54:14.041Z,13.40
2019-02-16T12:56:46.161Z,13.50
2019-02-16T12:59:18.118Z,13.40
2019-02-16T13:02:04.826Z,13.40
2019-02-16T13:04:40.740Z,13.40
2019-02-16T13:07:27.484Z,13.20
2019-02-16T13:10:05.221Z,13.50
2019-02-16T13:12:35.627Z,13.80
2019-02-16T13:15:15.965Z,13.50
2019-02-16T13:17:49.038Z,13.20
2019-02-16T13:20:19.487Z,13.40
2019-02-16T13:22:49.898Z,13.30
2019-02-16T13:25:29.296Z,13.30
2019-02-16T13:27:59.677Z,13.40
2019-02-16T13:30:36.902Z,13.30
2019-02-16T13:33:08.776Z,13.50
2019-02-16T13:35:45.077Z,13.60
2019-02-16T13:38:15.547Z,13.60
2019-02-16T13:40:50.715Z,13.80
2019-02-16T13:43:39.410Z,13.70
2019-02-16T13:46:15.835Z,13.70
2019-02-16T13:48:47.701Z,13.60
2019-02-16T13:51:21.044Z,13.60
2019-02-16T13:54:00.769Z,14.00
2019-02-16T13:56:40.555Z,14.20
2019-02-16T13:59:10.964Z,13.80
2019-02-16T14:01:41.391Z,13.90
2019-02-16T14:04:22.303Z,13.80
2019-02-16T14:06:59.073Z,13.90
2019-02-16T14:09:40.785Z,13.90
2019-02-16T14:12:16.894Z,14.10
2019-02-16T14:15:02.795Z,14.00
2019-02-16T14:17:33.155Z,13.90
2019-02-16T14:20:01.897Z,13.90
2019-02-16T14:22:30.656Z,13.90
2019-02-16T14:25:00.858Z,14.00
2019-02-16T14:27:30.681Z,14.20
2019-02-16T14:29:59.548Z,14.30
2019-02-16T14:32:28.260Z,14.30
2019-02-16T14:34:57.086Z,14.30
2019-02-16T14:37:39.561Z,14.20
2019-02-16T14:40:08.746Z,14.70
2019-02-16T14:42:37.550Z,14.50
2019-02-16T14:45:11.898Z,14.20
2019-02-16T14:47:40.659Z,14.10
2019-02-16T14:50:11.809Z,14.20
2019-02-16T14:52:40.570Z,14.40
2019-02-16T14:55:15.081Z,14.00
2019-02-16T14:57:43.822Z,14.00
2019-02-16T15:00:13.360Z,14.10
2019-02-16T15:02:42.165Z,14.60
2019-02-16T15:05:10.978Z,14.80
2019-02-16T15:07:39.808Z,14.90
2019-02-16T15:10:12.894Z,14.40
2019-02-16T15:12:41.612Z,14.30
2019-02-16T15:15:11.705Z,14.70
2019-02-16T15:17:40.504Z,14.60
2019-02-16T15:20:16.506Z,14.60
2019-02-16T15:22:45.346Z,14.30
2019-02-16T15:25:14.123Z,14.50
2019-02-16T15:27:42.965Z,14.20
2019-02-16T15:30:14.755Z,14.10
2019-02-16T15:32:43.511Z,14.60
2019-02-16T15:35:12.463Z,14.80
2019-02-16T15:37:41.242Z,15.00
2019-02-16T15:40:11.230Z,15.20
2019-02-16T15:42:39.971Z,15.20
2019-02-16T15:45:11.444Z,15.20
2019-02-16T15:47:40.304Z,15.10
2019-02-16T15:50:11.302Z,14.60
2019-02-16T15:52:40.146Z,14.90
2019-02-16T15:55:12.579Z,15.10
2019-02-16T15:57:41.547Z,14.90
2019-02-16T16:00:18.603Z,14.80
2019-02-16T16:02:47.427Z,14.80
2019-02-16T16:05:16.199Z,14.70
2019-02-16T16:07:46.590Z,15.20
2019-02-16T16:10:17.011Z,15.60
2019-02-16T16:12:47.390Z,15.10
2019-02-16T16:15:20.910Z,14.60
2019-02-16T16:17:54.433Z,14.10
2019-02-16T16:20:30.396Z,14.60
2019-02-16T16:23:06.872Z,14.70
2019-02-16T16:25:37.277Z,14.70
2019-02-16T16:28:22.751Z,14.30
2019-02-16T16:30:59.489Z,14.10
2019-02-16T16:33:31.497Z,14.30
2019-02-16T16:36:05.249Z,14.50
2019-02-16T16:38:35.649Z,15.00
2019-02-16T16:41:06.095Z,15.20
2019-02-16T16:43:52.561Z,14.80
2019-02-16T16:46:40.812Z,15.00
2019-02-16T16:49:27.595Z,15.10
2019-02-16T16:52:00.783Z,15.00
2019-02-16T16:54:40.121Z,14.70
2019-02-16T16:57:16.619Z,15.00
2019-02-16T16:59:53.255Z,14.60
2019-02-16T17:02:35.852Z,14.80
2019-02-16T17:05:07.670Z,15.10
2019-02-16T17:07:38.116Z,14.80
2019-02-16T17:10:15.763Z,14.70
2019-02-16T17:12:49.159Z,14.90
2019-02-16T17:15:36.135Z,14.70
2019-02-16T17:18:24.875Z,14.70
2019-02-16T17:21:13.893Z,14.40
2019-02-16T17:23:50.553Z,14.00
2019-02-16T17:26:38.060Z,14.30
2019-02-16T17:29:11.429Z,14.70
2019-02-16T17:31:51.270Z,14.90
2019-02-16T17:34:21.735Z,15.00
2019-02-16T17:37:07.153Z,14.90
2019-02-16T17:39:52.585Z,15.30
2019-02-16T17:42:32.139Z,15.10
2019-02-16T17:45:12.550Z,15.10
2019-02-16T17:47:44.601Z,15.10
2019-02-16T17:50:20.770Z,15.20
2019-02-16T17:52:57.240Z,15.10
2019-02-16T17:55:27.705Z,15.10
2019-02-16T17:58:06.593Z,14.80
2019-02-16T18:00:37.586Z,15.00
2019-02-16T18:03:10.763Z,15.20
2019-02-16T18:05:57.713Z,15.50
2019-02-16T18:08:31.403Z,15.50
2019-02-16T18:11:08.526Z,15.10
2019-02-16T18:13:41.655Z,14.40
2019-02-16T18:16:14.938Z,14.40
2019-02-16T18:18:45.332Z,14.70
2019-02-16T18:21:15.840Z,14.70
2019-02-16T18:23:52.906Z,14.40
2019-02-16T18:26:37.963Z,14.40
2019-02-16T18:29:08.480Z,14.10
2019-02-16T18:31:41.560Z,13.80
2019-02-16T18:34:23.202Z,13.80
2019-02-16T18:36:53.703Z,13.70
2019-02-16T18:39:27.881Z,13.40
2019-02-16T18:42:14.525Z,14.10
2019-02-16T18:44:54.248Z,14.00
2019-02-16T18:47:30.764Z,14.30
2019-02-16T18:50:07.054Z,14.40
2019-02-16T18:52:48.113Z,14.40
2019-02-16T18:55:18.645Z,14.80
2019-02-16T18:58:05.291Z,15.00
2019-02-16T19:00:38.734Z,14.70
2019-02-16T19:03:12.159Z,14.60
2019-02-16T19:05:42.563Z,14.40
2019-02-16T19:08:22.298Z,14.60
2019-02-16T19:13:58.501Z,14.30
2019-02-16T19:16:31.571Z,14.20
2019-02-16T19:19:04.681Z,14.60
2019-02-16T19:21:47.087Z,14.80
2019-02-16T19:24:23.644Z,14.80
2019-02-16T19:29:45.095Z,15.20
2019-02-16T19:32:21.442Z,15.00
2019-02-16T19:34:51.823Z,14.90
2019-02-16T19:37:22.278Z,15.20
2019-02-16T19:40:04.779Z,15.00
2019-02-16T19:42:38.140Z,15.00
2019-02-16T19:45:12.856Z,14.90
2019-02-16T19:47:49.140Z,14.60
2019-02-16T19:50:22.506Z,14.30
2019-02-16T19:52:55.868Z,14.00
2019-02-16T19:55:34.797Z,14.20
2019-02-16T19:58:21.092Z,14.50
2019-02-16T20:01:07.629Z,14.50
2019-02-16T20:03:40.802Z,14.60
2019-02-16T20:06:14.286Z,14.50
2019-02-16T20:08:47.375Z,14.70
2019-02-16T20:11:26.630Z,14.30
2019-02-16T20:14:05.946Z,14.10
2019-02-16T20:16:39.411Z,14.20
2019-02-16T20:19:17.106Z,14.50
2019-02-16T20:21:52.238Z,14.10
2019-02-16T20:24:39.293Z,14.10
2019-02-16T20:27:12.759Z,14.20
2019-02-16T20:29:46.124Z,14.20
2019-02-16T20:32:16.532Z,14.40
2019-02-16T20:34:47.049Z,14.50
2019-02-16T20:37:26.376Z,14.40
2019-02-16T20:40:03.484Z,14.60
2019-02-16T20:42:42.585Z,14.10
2019-02-16T20:45:25.005Z,14.10
2019-02-16T20:48:07.180Z,14.00
2019-02-16T20:50:37.914Z,13.90
2019-02-16T20:53:24.851Z,13.40
2019-02-16T20:56:01.279Z,13.60
2019-02-16T20:58:31.651Z,13.70
2019-02-16T21:01:14.176Z,13.40
2019-02-16T21:04:00.925Z,13.80
2019-02-16T21:06:47.545Z,14.10
2019-02-16T21:09:29.788Z,14.00
2019-02-16T21:12:09.130Z,13.80
2019-02-16T21:14:48.224Z,14.00
2019-02-16T21:17:18.584Z,14.40
2019-02-16T21:19:51.866Z,14.90
2019-02-16T21:22:25.175Z,14.70
2019-02-16T21:24:55.562Z,14.90
2019-02-16T21:27:28.869Z,14.60
2019-02-16T21:30:02.380Z,14.90
2019-02-16T21:32:35.402Z,15.30
2019-02-16T21:35:06.127Z,15.10
2019-02-16T21:37:36.629Z,14.90
2019-02-16T21:40:10.779Z,14.50
2019-02-16T21:42:50.148Z,14.40
2019-02-16T21:45:29.324Z,14.70
2019-02-16T21:48:15.626Z,14.60
2019-02-16T21:50:49.872Z,14.80
2019-02-16T21:53:21.646Z,14.70
2019-02-16T21:55:58.728Z,15.20
2019-02-16T21:58:45.362Z,15.20
2019-02-16T22:01:33.843Z,15.00
2019-02-16T22:04:13.230Z,14.90
2019-02-16T22:06:46.357Z,15.10
2019-02-16T22:09:28.824Z,14.80
2019-02-16T22:12:08.317Z,14.60
2019-02-16T22:14:37.594Z,15.20
2019-02-16T22:17:06.403Z,15.20
2019-02-16T22:19:35.153Z,15.20
2019-02-16T22:22:03.899Z,14.60
2019-02-16T22:24:32.739Z,15.20
2019-02-16T22:27:01.541Z,15.20
2019-02-16T22:29:30.270Z,15.10
2019-02-16T22:31:59.047Z,15.60
2019-02-16T22:34:27.756Z,14.50
2019-02-16T22:36:56.487Z,14.40
2019-02-16T22:39:25.246Z,14.50
2019-02-16T22:41:55.246Z,14.50
2019-02-16T22:44:23.972Z,14.60
2019-02-16T22:46:52.721Z,14.20
2019-02-16T22:49:23.311Z,14.10
2019-02-16T22:51:52.036Z,13.30
2019-02-16T22:54:20.767Z,13.30
2019-02-16T22:56:49.489Z,13.60
2019-02-16T22:59:20.038Z,13.70
2019-02-16T23:01:48.850Z,13.60
2019-02-16T23:04:17.593Z,13.70
2019-02-16T23:06:46.295Z,13.70
2019-02-16T23:09:19.305Z,13.10
2019-02-16T23:11:48.140Z,12.80
2019-02-16T23:14:16.925Z,12.90
2019-02-16T23:16:45.633Z,13.10
2019-02-16T23:19:14.388Z,13.00
2019-02-16T23:21:43.154Z,13.40
2019-02-16T23:24:11.917Z,13.40
2019-02-16T23:26:40.603Z,12.90
2019-02-16T23:29:09.346Z,13.20
2019-02-16T23:31:38.211Z,13.10
2019-02-16T23:34:07.021Z,12.80
2019-02-16T23:36:35.750Z,12.40
2019-02-16T23:39:06.398Z,12.70
2019-02-16T23:41:35.140Z,12.50
2019-02-16T23:44:03.973Z,12.30
2019-02-16T23:46:32.691Z,12.60
2019-02-16T23:49:01.457Z,12.60
2019-02-16T23:51:30.173Z,12.30
2019-02-16T23:53:58.987Z,12.60
2019-02-16T23:56:28.793Z,13.00
2019-02-16T23:58:57.590Z,13.10
